Time;durP1;ratioP1;P1;durP2;ratioP2;P2;SDS_P1;SDS_P2;PMS_P1;PMS_P2;Temp;Humidity;BMP_temperature;BMP_pressure;BME280_temperature;BME280_humidity;BME280_pressure;Samples;Min_cycle;Max_cycle;Signal;HPM_P1;HPM_P2
2022/02/17 00:00:31;;;;;;;0.20;0.20;;;;;;;7.76;100.00;91977.69;2107128;28;20031;-87
2022/02/17 00:01:32;;;;;;;0.15;0.15;;;;;;;7.64;100.00;91970.47;2098873;28;20029;-87
2022/02/17 00:02:33;;;;;;;0.28;0.28;;;;;;;7.55;100.00;91976.41;2106870;28;20412;-87
2022/02/17 00:03:34;;;;;;;0.22;0.22;;;;;;;7.62;100.00;91974.69;2107125;28;20028;-87
2022/02/17 00:04:35;;;;;;;0.15;0.15;;;;;;;7.69;100.00;91977.16;2115240;28;20081;-87
2022/02/17 00:05:36;;;;;;;1.77;0.20;;;;;;;7.61;100.00;91987.25;2106958;28;20031;-87
2022/02/17 00:06:37;;;;;;;0.30;0.30;;;;;;;7.72;100.00;91992.25;2098564;28;20134;-87
2022/02/17 00:07:38;;;;;;;0.10;0.10;;;;;;;7.84;100.00;91986.19;2115223;28;20027;-88
2022/02/17 00:08:39;;;;;;;0.10;0.10;;;;;;;7.86;100.00;91999.84;2115363;28;20110;-88
2022/02/17 00:09:40;;;;;;;0.52;0.13;;;;;;;7.83;100.00;92017.38;2098488;28;20028;-87
2022/02/17 00:10:41;;;;;;;0.25;0.25;;;;;;;7.83;100.00;92013.97;2098415;28;20070;-87
2022/02/17 00:11:42;;;;;;;0.20;0.20;;;;;;;7.92;100.00;92003.44;2106793;28;20550;-87
2022/02/17 00:12:43;;;;;;;0.20;0.20;;;;;;;7.74;100.00;92038.53;2098642;28;20024;-88
2022/02/17 00:13:44;;;;;;;0.73;0.15;;;;;;;7.97;100.00;92036.75;2098516;28;20021;-87
2022/02/17 00:14:45;;;;;;;0.20;0.20;;;;;;;7.87;100.00;92014.63;2115138;28;20033;-87
2022/02/17 00:15:47;;;;;;;0.17;0.10;;;;;;;7.94;100.00;92056.97;2115247;28;20047;-88
2022/02/17 00:16:52;;;;;;;0.17;0.17;;;;;;;7.80;100.00;92004.91;2106821;28;20032;-87
2022/02/17 00:17:54;;;;;;;0.10;0.10;;;;;;;7.82;100.00;92007.91;2107315;28;20454;-87
2022/02/17 00:18:55;;;;;;;7.13;4.55;;;;;;;7.75;100.00;92008.13;2098949;28;20425;-87
2022/02/17 00:19:56;;;;;;;0.82;0.30;;;;;;;7.68;100.00;92004.91;2098359;28;20143;-87
2022/02/17 00:20:57;;;;;;;0.50;0.20;;;;;;;7.82;100.00;91977.91;2098447;28;20033;-88
2022/02/17 00:21:58;;;;;;;0.20;0.20;;;;;;;7.63;100.00;92013.41;2098293;28;20032;-87
2022/02/17 00:22:59;;;;;;;0.10;0.10;;;;;;;7.75;100.00;91999.38;2106699;28;20020;-87
2022/02/17 00:24:00;;;;;;;0.20;0.20;;;;;;;7.75;100.00;91986.84;2115099;28;20173;-87
2022/02/17 00:25:02;;;;;;;0.52;0.20;;;;;;;7.65;100.00;92005.78;2106753;28;20024;-87
2022/02/17 00:26:03;;;;;;;0.30;0.30;;;;;;;7.66;100.00;92010.66;2106803;28;20026;-87
2022/02/17 00:27:04;;;;;;;0.10;0.10;;;;;;;7.53;100.00;92026.59;2098284;28;20023;-87
2022/02/17 00:28:05;;;;;;;0.10;0.10;;;;;;;7.46;100.00;92016.16;2090215;28;20107;-87
2022/02/17 00:29:06;;;;;;;0.20;0.20;;;;;;;7.65;100.00;92025.13;2098233;28;20418;-87
2022/02/17 00:30:08;;;;;;;0.25;0.20;;;;;;;7.73;100.00;92021.09;2089397;28;20024;-87
2022/02/17 00:31:09;;;;;;;0.25;0.20;;;;;;;7.80;100.00;92010.25;2097548;28;20094;-87
2022/02/17 00:32:11;;;;;;;0.15;0.10;;;;;;;7.81;100.00;92003.78;2096716;28;20020;-87
2022/02/17 00:33:12;;;;;;;0.55;0.13;;;;;;;7.62;100.00;92023.31;2097044;28;20028;-88
2022/02/17 00:34:13;;;;;;;1.38;0.20;;;;;;;7.66;100.00;92034.59;2105512;28;20392;-87
2022/02/17 00:35:14;;;;;;;0.95;0.13;;;;;;;7.67;100.00;92024.69;2113410;28;20020;-88
2022/02/17 00:36:15;;;;;;;0.35;0.30;;;;;;;7.63;100.00;92019.47;2097224;28;20035;-87
2022/02/17 00:37:16;;;;;;;0.88;0.13;;;;;;;7.50;100.00;92042.63;2098200;28;20044;-88
2022/02/17 00:38:17;;;;;;;0.10;0.10;;;;;;;7.55;100.00;92026.16;2097991;28;20024;-86
2022/02/17 00:39:18;;;;;;;0.52;0.20;;;;;;;7.62;100.00;92057.13;2098208;28;20039;-87
2022/02/17 00:40:19;;;;;;;0.50;0.17;;;;;;;7.59;100.00;92072.00;2106318;28;20377;-87
2022/02/17 00:41:20;;;;;;;0.25;0.17;;;;;;;7.58;100.00;92044.69;2106409;28;20058;-87
2022/02/17 00:42:22;;;;;;;0.10;0.10;;;;;;;7.43;100.00;92040.19;2097688;28;20021;-87
2022/02/17 00:43:23;;;;;;;0.20;0.20;;;;;;;7.39;100.00;92026.25;2098094;28;20112;-87
2022/02/17 00:44:24;;;;;;;0.10;0.10;;;;;;;7.42;100.00;92068.69;2089799;28;20021;-87
2022/02/17 00:45:25;;;;;;;0.20;0.20;;;;;;;7.36;100.00;92053.66;2098105;28;20021;-87
2022/02/17 00:46:29;;;;;;;0.10;0.10;;;;;;;7.54;100.00;92062.63;2098128;28;20025;-87
2022/02/17 00:47:30;;;;;;;0.10;0.10;;;;;;;7.47;100.00;92049.56;2098749;28;20028;-88
2022/02/17 00:48:31;;;;;;;0.10;0.10;;;;;;;7.39;100.00;92058.88;2098038;28;20024;-87
2022/02/17 00:49:32;;;;;;;0.10;0.10;;;;;;;7.32;100.00;92064.38;2089869;28;20031;-88
2022/02/17 00:50:33;;;;;;;0.13;0.13;;;;;;;7.54;100.00;92067.22;2089865;28;20581;-87
2022/02/17 00:51:36;;;;;;;0.45;0.20;;;;;;;7.47;100.00;92065.50;2089931;28;20442;-88
2022/02/17 00:52:37;;;;;;;0.10;0.10;;;;;;;7.37;100.00;92057.81;2098749;28;20051;-87
2022/02/17 00:53:40;;;;;;;0.20;0.20;;;;;;;7.38;100.00;92064.63;2106707;28;20016;-88
2022/02/17 00:54:41;;;;;;;0.28;0.20;;;;;;;7.26;100.00;92072.13;2098256;28;20039;-88
2022/02/17 00:55:42;;;;;;;0.10;0.10;;;;;;;7.33;100.00;92081.81;2089897;28;20123;-88
2022/02/17 00:56:44;;;;;;;0.20;0.20;;;;;;;7.29;100.00;92073.22;2098211;28;20036;-88
2022/02/17 00:57:45;;;;;;;0.20;0.20;;;;;;;7.26;100.00;92058.09;2090266;28;20466;-87
2022/02/17 00:58:46;;;;;;;0.10;0.10;;;;;;;7.21;100.00;92058.63;2106520;28;20123;-87
2022/02/17 00:59:47;;;;;;;0.22;0.20;;;;;;;7.39;100.00;92077.50;2106611;28;20020;-87
2022/02/17 01:00:48;;;;;;;0.10;0.10;;;;;;;7.63;100.00;92062.03;2098184;28;20036;-87
2022/02/17 01:01:49;;;;;;;0.20;0.20;;;;;;;7.54;100.00;92061.91;2097953;28;20024;-88
2022/02/17 01:02:51;;;;;;;0.35;0.35;;;;;;;7.51;100.00;92087.44;2098171;28;20085;-87
2022/02/17 01:03:52;;;;;;;0.10;0.10;;;;;;;7.61;100.00;92090.22;2098119;28;20027;-87
2022/02/17 01:04:53;;;;;;;0.10;0.10;;;;;;;7.54;100.00;92089.22;2097962;28;20029;-87
2022/02/17 01:05:54;;;;;;;0.20;0.20;;;;;;;7.58;100.00;92086.47;2098126;28;20110;-88
2022/02/17 01:06:54;;;;;;;0.20;0.20;;;;;;;7.51;100.00;92092.75;2098052;28;20028;-87
2022/02/17 01:07:55;;;;;;;0.10;0.10;;;;;;;7.63;100.00;92079.91;2097907;28;20021;-88
2022/02/17 01:08:56;;;;;;;2.45;0.20;;;;;;;7.56;100.00;92094.88;2090088;28;20028;-89
2022/02/17 01:09:57;;;;;;;0.47;0.20;;;;;;;7.63;100.00;92083.28;2089793;28;20417;-87
2022/02/17 01:10:58;;;;;;;0.70;0.20;;;;;;;7.50;100.00;92080.59;2089591;28;20470;-87
2022/02/17 01:11:59;;;;;;;0.20;0.15;;;;;;;7.52;100.00;92067.66;2089895;28;20032;-88
2022/02/17 01:13:00;;;;;;;0.20;0.20;;;;;;;7.54;100.00;92102.53;2098352;28;20025;-87
2022/02/17 01:14:04;;;;;;;0.10;0.10;;;;;;;7.58;100.00;92079.25;2098000;28;20032;-87
2022/02/17 01:15:06;;;;;;;0.68;0.10;;;;;;;7.48;100.00;92080.28;2090396;28;20025;-88
2022/02/17 01:16:07;;;;;;;0.10;0.10;;;;;;;7.59;100.00;92082.66;2097989;28;20033;-88
2022/02/17 01:17:09;;;;;;;0.10;0.10;;;;;;;7.53;100.00;92071.03;2106165;28;20032;-87
2022/02/17 01:18:10;;;;;;;0.10;0.10;;;;;;;7.40;100.00;92078.97;2098228;28;20124;-87
2022/02/17 01:19:12;;;;;;;0.50;0.10;;;;;;;7.39;100.00;92087.38;2106638;28;20028;-88
2022/02/17 01:20:13;;;;;;;0.10;0.10;;;;;;;7.36;100.00;92078.31;2106200;28;20024;-87
2022/02/17 01:21:14;;;;;;;0.20;0.20;;;;;;;7.44;100.00;92103.56;2097995;28;20108;-88
2022/02/17 01:22:15;;;;;;;0.20;0.20;;;;;;;7.45;100.00;92075.06;2107085;28;20076;-87
2022/02/17 01:23:16;;;;;;;2.35;0.38;;;;;;;7.38;100.00;92101.84;2097970;28;20173;-87
2022/02/17 01:24:17;;;;;;;0.47;0.20;;;;;;;7.45;100.00;92091.75;2098101;28;20090;-88
2022/02/17 01:25:18;;;;;;;0.10;0.10;;;;;;;7.52;100.00;92096.16;2097957;28;20561;-87
2022/02/17 01:26:19;;;;;;;0.75;0.15;;;;;;;7.42;100.00;92108.56;2089689;28;20028;-87
2022/02/17 01:27:20;;;;;;;0.10;0.10;;;;;;;7.30;100.00;92101.28;2089722;28;20048;-88
2022/02/17 01:28:21;;;;;;;0.40;0.10;;;;;;;7.23;100.00;92101.47;2106077;28;20027;-87
2022/02/17 01:29:22;;;;;;;0.20;0.20;;;;;;;7.18;100.00;92094.75;2106199;28;20028;-87
2022/02/17 01:30:23;;;;;;;0.20;0.10;;;;;;;7.16;100.00;92106.97;2106210;28;20032;-88
2022/02/17 01:31:24;;;;;;;0.10;0.10;;;;;;;7.21;100.00;92096.56;2089433;28;20243;-88
2022/02/17 01:32:26;;;;;;;1.30;0.20;;;;;;;7.31;100.00;92089.47;2097721;28;20020;-87
2022/02/17 01:33:27;;;;;;;0.13;0.13;;;;;;;7.25;100.00;92069.91;2089679;28;20048;-87
2022/02/17 01:34:34;;;;;;;0.17;0.10;;;;;;;7.29;100.00;92086.50;2097749;28;20036;-87
2022/02/17 01:35:34;;;;;;;1.02;0.30;;;;;;;7.26;100.00;92066.06;2091183;28;20031;-87
2022/02/17 01:36:35;;;;;;;0.20;0.20;;;;;;;7.19;100.00;92068.91;2097740;28;20126;-87
2022/02/17 01:37:36;;;;;;;0.20;0.20;;;;;;;7.26;100.00;92079.38;2106217;28;20019;-87
2022/02/17 01:38:41;;;;;;;0.25;0.25;;;;;;;7.18;100.00;92084.09;2114367;28;20031;-87
2022/02/17 01:39:42;;;;;;;0.10;0.10;;;;;;;7.22;100.00;92052.88;2098145;28;20466;-87
2022/02/17 01:40:43;;;;;;;0.20;0.20;;;;;;;7.19;100.00;92076.88;2097659;28;20024;-87
2022/02/17 01:41:44;;;;;;;0.10;0.10;;;;;;;7.13;100.00;92068.69;2097548;28;20413;-87
2022/02/17 01:42:46;;;;;;;0.20;0.20;;;;;;;7.29;100.00;92065.25;2089393;28;20028;-87
2022/02/17 01:43:49;;;;;;;0.10;0.10;;;;;;;7.15;100.00;92068.25;2089694;28;20542;-87
2022/02/17 01:44:50;;;;;;;0.20;0.20;;;;;;;7.25;100.00;92067.25;2098074;28;20426;-87
2022/02/17 01:45:51;;;;;;;0.10;0.10;;;;;;;7.23;100.00;92083.59;2097680;28;20028;-86
2022/02/17 01:46:52;;;;;;;0.10;0.10;;;;;;;7.26;100.00;92066.06;2097491;28;20105;-87
2022/02/17 01:47:53;;;;;;;0.65;0.15;;;;;;;7.24;100.00;92079.03;2097573;28;20020;-87
2022/02/17 01:48:54;;;;;;;0.20;0.20;;;;;;;7.11;100.00;92063.03;2097753;28;20024;-87
2022/02/17 01:49:55;;;;;;;0.10;0.10;;;;;;;7.15;100.00;92062.94;2106029;28;20503;-87
2022/02/17 01:50:56;;;;;;;0.10;0.10;;;;;;;7.17;100.00;92068.59;2097351;28;20028;-87
2022/02/17 01:51:57;;;;;;;0.28;0.10;;;;;;;7.35;100.00;92068.13;2089705;28;20031;-88
2022/02/17 01:52:58;;;;;;;0.10;0.10;;;;;;;7.20;100.00;92051.78;2097446;28;20017;-88
2022/02/17 01:54:01;;;;;;;0.70;0.20;;;;;;;7.28;100.00;92058.41;2097017;28;20115;-87
2022/02/17 01:55:03;;;;;;;0.10;0.10;;;;;;;7.34;100.00;92059.41;2089780;28;20102;-86
2022/02/17 01:56:05;;;;;;;0.20;0.20;;;;;;;7.35;100.00;92052.19;2089755;28;20029;-87
2022/02/17 01:57:15;;;;;;;0.20;0.20;;;;;;;7.30;100.00;92048.88;2106111;28;20366;-88
2022/02/17 01:58:17;;;;;;;0.38;0.20;;;;;;;7.43;100.00;92059.53;2114548;28;20027;-88
2022/02/17 01:59:18;;;;;;;0.43;0.20;;;;;;;7.28;100.00;92037.91;2105969;28;20052;-87
2022/02/17 02:00:19;;;;;;;0.80;0.30;;;;;;;7.35;100.00;92042.28;2097562;28;20025;-86
2022/02/17 02:01:24;;;;;;;2.03;0.20;;;;;;;7.22;100.00;92028.97;2089359;28;20466;-87
2022/02/17 02:02:25;;;;;;;0.20;0.20;;;;;;;7.16;100.00;92059.88;2098808;28;20101;-87
2022/02/17 02:03:26;;;;;;;0.15;0.15;;;;;;;7.10;100.00;92021.69;2097505;28;20162;-87
2022/02/17 02:04:27;;;;;;;0.20;0.20;;;;;;;7.20;100.00;92014.59;2089232;28;20024;-86
2022/02/17 02:05:28;;;;;;;0.60;0.20;;;;;;;7.23;100.00;92014.50;2097615;28;20039;-87
2022/02/17 02:06:30;;;;;;;0.20;0.20;;;;;;;7.18;100.00;92016.94;2097412;28;20028;-87
2022/02/17 02:07:32;;;;;;;0.10;0.10;;;;;;;7.26;100.00;92008.34;2089673;28;20068;-87
2022/02/17 02:08:33;;;;;;;0.10;0.10;;;;;;;7.23;100.00;91995.88;2089544;28;20093;-87
2022/02/17 02:09:35;;;;;;;0.30;0.20;;;;;;;7.24;100.00;92001.94;2089256;28;20025;-86
2022/02/17 02:10:37;;;;;;;0.20;0.20;;;;;;;7.20;100.00;92006.63;2097661;28;20583;-87
2022/02/17 02:11:38;;;;;;;0.10;0.10;;;;;;;7.17;100.00;92026.81;2089401;28;20041;-87
2022/02/17 02:12:39;;;;;;;0.65;0.20;;;;;;;7.23;100.00;92019.81;2106019;28;20043;-87
2022/02/17 02:13:40;;;;;;;0.20;0.20;;;;;;;7.14;100.00;92021.59;2105833;28;20090;-87
2022/02/17 02:14:54;;;;;;;0.20;0.10;;;;;;;7.22;100.00;92026.31;2105700;28;20032;-87
2022/02/17 02:15:58;;;;;;;1.58;0.30;;;;;;;7.24;100.00;91997.41;2100974;28;20801;-86
2022/02/17 02:17:00;;;;;;;0.20;0.20;;;;;;;7.18;100.00;91990.34;2097985;28;20480;-86
2022/02/17 02:18:00;;;;;;;0.20;0.20;;;;;;;7.37;100.00;91984.13;2097521;28;20031;-88
2022/02/17 02:19:01;;;;;;;0.10;0.10;;;;;;;7.33;100.00;91986.13;2105867;28;20024;-87
2022/02/17 02:20:06;;;;;;;0.52;0.20;;;;;;;7.31;100.00;91999.09;2097369;28;20024;-87
2022/02/17 02:21:07;;;;;;;0.20;0.20;;;;;;;7.25;100.00;91996.22;2090312;28;20116;-87
2022/02/17 02:22:08;;;;;;;0.10;0.10;;;;;;;7.40;100.00;92006.47;2089085;28;20134;-87
2022/02/17 02:23:08;;;;;;;0.10;0.10;;;;;;;7.26;100.00;92010.25;2089022;28;20036;-87
2022/02/17 02:24:09;;;;;;;0.10;0.10;;;;;;;7.23;100.00;91998.53;2105765;28;20110;-87
2022/02/17 02:25:11;;;;;;;0.10;0.10;;;;;;;7.30;100.00;91993.03;2097537;28;20021;-87
2022/02/17 02:26:11;;;;;;;0.93;0.13;;;;;;;7.40;100.00;92017.84;2097430;28;20067;-88
2022/02/17 02:27:14;;;;;;;0.10;0.10;;;;;;;7.43;100.00;92019.66;2097152;28;20021;-86
2022/02/17 02:28:17;;;;;;;0.20;0.20;;;;;;;7.30;100.00;91993.03;2097853;28;20043;-87
2022/02/17 02:29:18;;;;;;;0.17;0.17;;;;;;;7.35;100.00;91996.34;2097860;28;20028;-87
2022/02/17 02:30:19;;;;;;;0.10;0.10;;;;;;;7.41;100.00;92019.31;2097503;28;20047;-88
2022/02/17 02:31:21;;;;;;;0.10;0.10;;;;;;;7.40;100.00;92025.06;2097592;28;20024;-88
2022/02/17 02:32:22;;;;;;;0.10;0.10;;;;;;;7.44;100.00;92029.13;2097811;28;20115;-88
2022/02/17 02:33:25;;;;;;;0.10;0.10;;;;;;;7.38;100.00;92057.41;2097231;28;20381;-88
2022/02/17 02:34:26;;;;;;;0.10;0.10;;;;;;;7.46;100.00;92052.63;2089687;28;20041;-87
2022/02/17 02:35:27;;;;;;;1.75;0.20;;;;;;;7.41;100.00;92029.22;2089086;28;20025;-88
2022/02/17 02:36:29;;;;;;;0.28;0.20;;;;;;;7.24;100.00;92041.81;2097586;28;20057;-88
2022/02/17 02:37:30;;;;;;;0.20;0.20;;;;;;;7.39;100.00;92048.25;2097866;28;20111;-88
2022/02/17 02:38:31;;;;;;;0.85;0.30;;;;;;;7.30;100.00;92035.56;2097388;28;20024;-88
2022/02/17 02:39:33;;;;;;;0.15;0.15;;;;;;;7.37;100.00;92041.84;2089250;28;20693;-88
2022/02/17 02:40:34;;;;;;;0.45;0.20;;;;;;;7.45;100.00;92043.16;2089599;28;20044;-87
2022/02/17 02:41:35;;;;;;;0.20;0.20;;;;;;;7.28;100.00;92040.56;2097429;28;20023;-87
2022/02/17 02:42:36;;;;;;;0.10;0.10;;;;;;;7.38;100.00;92035.41;2105672;28;20020;-88
2022/02/17 02:43:38;;;;;;;1.65;0.10;;;;;;;7.26;100.00;92039.50;2105474;28;20081;-87
2022/02/17 02:44:39;;;;;;;0.20;0.10;;;;;;;7.44;100.00;92031.03;2097714;28;20423;-87
2022/02/17 02:45:43;;;;;;;0.63;0.13;;;;;;;7.30;100.00;92048.88;2097435;28;20032;-87
2022/02/17 02:46:51;;;;;;;2.75;0.20;;;;;;;7.16;100.00;92012.03;2106460;28;20070;-87
2022/02/17 02:47:59;;;;;;;0.20;0.10;;;;;;;7.24;100.00;92041.81;2105783;28;20166;-88
2022/02/17 02:49:00;;;;;;;0.90;0.20;;;;;;;7.27;100.00;92038.31;2091023;28;20028;-87
2022/02/17 02:50:01;;;;;;;0.20;0.20;;;;;;;7.28;100.00;92040.56;2089178;28;20021;-87
2022/02/17 02:51:02;;;;;;;0.20;0.20;;;;;;;7.23;100.00;92040.31;2105869;28;20096;-87
2022/02/17 02:52:04;;;;;;;0.10;0.10;;;;;;;7.24;100.00;92060.41;2105754;28;20020;-87
2022/02/17 02:53:05;;;;;;;0.10;0.10;;;;;;;7.40;100.00;92039.09;2089551;28;20029;-88
2022/02/17 02:54:06;;;;;;;0.50;0.20;;;;;;;7.37;100.00;92041.84;2097283;28;20473;-88
2022/02/17 02:55:08;;;;;;;0.20;0.10;;;;;;;7.48;100.00;92035.09;2089184;28;20759;-87
2022/02/17 02:56:09;;;;;;;0.22;0.13;;;;;;;7.47;100.00;92038.91;2097496;28;20028;-88
2022/02/17 02:57:10;;;;;;;0.35;0.25;;;;;;;7.40;100.00;92028.47;2097238;28;20032;-88
2022/02/17 02:58:12;;;;;;;0.10;0.10;;;;;;;7.40;100.00;92059.63;2089199;28;20437;-88
2022/02/17 02:59:13;;;;;;;1.08;0.20;;;;;;;7.45;100.00;92056.44;2097695;28;20031;-88
2022/02/17 03:00:14;;;;;;;0.30;0.20;;;;;;;7.40;100.00;92068.34;2097525;28;20661;-89
2022/02/17 03:01:19;;;;;;;3.95;0.30;;;;;;;7.33;100.00;92068.53;2105776;28;20408;-88
2022/02/17 03:02:20;;;;;;;0.10;0.10;;;;;;;7.37;100.00;92047.16;2105604;28;20069;-88
2022/02/17 03:03:21;;;;;;;0.52;0.17;;;;;;;7.49;100.00;92060.50;2097450;28;20515;-88
2022/02/17 03:04:22;;;;;;;0.20;0.20;;;;;;;7.35;100.00;92058.22;2097481;28;20020;-88
2022/02/17 03:05:23;;;;;;;0.28;0.20;;;;;;;7.30;100.00;92050.78;2097802;28;20048;-88
2022/02/17 03:06:24;;;;;;;0.10;0.10;;;;;;;7.33;100.00;92039.28;2107260;28;20024;-87
2022/02/17 03:07:35;;;;;;;0.10;0.10;;;;;;;7.35;100.00;92071.53;2107465;28;20310;-87
2022/02/17 03:08:36;;;;;;;1.95;0.20;;;;;;;7.31;100.00;92031.00;2093519;28;20803;-88
2022/02/17 03:09:37;;;;;;;1.30;0.20;;;;;;;7.21;100.00;92035.44;2090789;28;20100;-87
2022/02/17 03:10:38;;;;;;;0.20;0.20;;;;;;;7.28;100.00;92040.56;2098886;28;20036;-88
2022/02/17 03:11:39;;;;;;;0.13;0.10;;;;;;;7.21;100.00;92048.72;2098947;28;20159;-88
2022/02/17 03:12:40;;;;;;;0.10;0.10;;;;;;;7.24;100.00;92045.25;2090765;28;20024;-88
2022/02/17 03:13:41;;;;;;;0.20;0.20;;;;;;;7.26;100.00;92044.81;2098692;28;20012;-88
2022/02/17 03:14:43;;;;;;;0.13;0.13;;;;;;;7.22;100.00;92036.94;2090575;28;20386;-88
2022/02/17 03:15:44;;;;;;;1.35;0.20;;;;;;;7.24;100.00;92041.81;2099024;28;20032;-87
2022/02/17 03:16:45;;;;;;;0.20;0.20;;;;;;;7.23;100.00;92043.00;2098660;28;20444;-87
2022/02/17 03:17:46;;;;;;;0.10;0.10;;;;;;;7.24;100.00;92023.97;2098821;28;20461;-87
2022/02/17 03:18:47;;;;;;;1.42;0.20;;;;;;;7.36;100.00;92027.81;2098750;28;20027;-88
2022/02/17 03:19:48;;;;;;;0.50;0.20;;;;;;;7.25;100.00;92038.75;2098821;28;20028;-88
2022/02/17 03:20:49;;;;;;;0.80;0.20;;;;;;;7.31;100.00;92038.97;2098843;28;20086;-88
2022/02/17 03:21:50;;;;;;;0.20;0.20;;;;;;;7.29;100.00;92034.09;2090449;28;20021;-87
2022/02/17 03:22:51;;;;;;;0.10;0.10;;;;;;;7.40;100.00;92044.41;2102752;28;20024;-87
2022/02/17 03:23:53;;;;;;;0.20;0.20;;;;;;;7.34;100.00;92024.09;2098874;28;20012;-88
2022/02/17 03:24:54;;;;;;;1.20;0.10;;;;;;;7.22;100.00;92036.19;2098857;28;20052;-87
2022/02/17 03:25:57;;;;;;;0.52;0.20;;;;;;;7.39;100.00;92026.25;2098711;28;20057;-87
2022/02/17 03:26:57;;;;;;;0.38;0.10;;;;;;;7.44;100.00;92049.66;2099072;28;20095;-86
2022/02/17 03:27:58;;;;;;;0.20;0.20;;;;;;;7.39;100.00;92050.91;2107447;28;20129;-87
2022/02/17 03:28:59;;;;;;;0.20;0.20;;;;;;;7.54;100.00;92032.66;2107085;28;20811;-87
2022/02/17 03:30:01;;;;;;;0.25;0.25;;;;;;;7.47;100.00;92038.19;2090431;28;20024;-87
2022/02/17 03:31:02;;;;;;;0.25;0.25;;;;;;;7.38;100.00;92032.75;2091044;28;20017;-87
2022/02/17 03:32:04;;;;;;;0.13;0.13;;;;;;;7.38;100.00;92030.81;2090383;28;20047;-87
2022/02/17 03:33:05;;;;;;;0.20;0.20;;;;;;;7.32;100.00;92043.13;2098929;28;20055;-87
2022/02/17 03:34:06;;;;;;;0.30;0.10;;;;;;;7.35;100.00;92041.53;2098750;28;20047;-87
2022/02/17 03:35:07;;;;;;;0.90;0.20;;;;;;;7.42;100.00;92050.09;2098704;28;20115;-87
2022/02/17 03:36:08;;;;;;;0.22;0.13;;;;;;;7.42;100.00;92015.53;2098907;28;20028;-87
2022/02/17 03:37:09;;;;;;;0.82;0.20;;;;;;;7.34;100.00;92034.75;2090514;28;20096;-87
2022/02/17 03:38:11;;;;;;;0.22;0.20;;;;;;;7.55;100.00;92018.19;2098637;28;20024;-88
2022/02/17 03:39:14;;;;;;;1.77;0.10;;;;;;;7.59;100.00;92021.47;2107121;28;20416;-87
2022/02/17 03:40:15;;;;;;;0.10;0.10;;;;;;;7.50;100.00;92008.81;2098895;28;20035;-88
2022/02/17 03:41:16;;;;;;;0.25;0.20;;;;;;;7.41;100.00;92018.59;2090293;28;20088;-87
2022/02/17 03:42:17;;;;;;;0.10;0.10;;;;;;;7.33;100.00;92018.03;2090418;28;20331;-87
2022/02/17 03:43:18;;;;;;;0.10;0.10;;;;;;;7.43;100.00;92022.31;2098892;28;20652;-88
2022/02/17 03:44:19;;;;;;;0.10;0.10;;;;;;;7.31;100.00;92031.00;2107040;28;20065;-88
2022/02/17 03:45:20;;;;;;;0.20;0.20;;;;;;;7.45;100.00;92029.88;2106992;28;20132;-88
2022/02/17 03:46:21;;;;;;;0.32;0.20;;;;;;;7.39;100.00;92023.59;2099133;28;20032;-88
2022/02/17 03:47:22;;;;;;;0.65;0.20;;;;;;;7.45;100.00;92022.63;2106993;28;20028;-89
2022/02/17 03:48:23;;;;;;;0.10;0.10;;;;;;;7.47;100.00;92046.91;2098604;28;20410;-87
2022/02/17 03:49:24;;;;;;;0.20;0.20;;;;;;;7.42;100.00;92039.44;2113577;28;20016;-87
2022/02/17 03:50:25;;;;;;;0.35;0.20;;;;;;;7.45;100.00;92059.84;2106872;28;20095;-87
2022/02/17 03:51:26;;;;;;;0.10;0.10;;;;;;;7.42;100.00;92050.09;2107133;27;20118;-87
2022/02/17 03:52:30;;;;;;;0.10;0.10;;;;;;;7.45;100.00;92043.91;2106801;28;20077;-87
2022/02/17 03:53:31;;;;;;;0.35;0.10;;;;;;;7.40;100.00;92043.69;2099421;28;20493;-87
2022/02/17 03:54:32;;;;;;;0.10;0.10;;;;;;;7.37;100.00;92052.50;2098817;28;20028;-87
2022/02/17 03:55:33;;;;;;;1.17;0.20;;;;;;;7.23;100.00;92046.38;2098493;28;20070;-87
2022/02/17 03:56:34;;;;;;;0.20;0.20;;;;;;;7.40;100.00;92051.66;2098476;28;20062;-87
2022/02/17 03:57:35;;;;;;;1.20;0.20;;;;;;;7.48;100.00;92037.75;2106818;28;20031;-87
2022/02/17 03:59:07;;;;;;;0.10;0.10;;;;;;;7.54;100.00;92062.63;2106812;28;20102;-88
2022/02/17 04:00:09;;;;;;;0.10;0.10;;;;;;;7.47;100.00;92076.16;2111393;28;20429;-87
2022/02/17 04:01:10;;;;;;;1.00;0.10;;;;;;;7.67;100.00;92060.00;2107143;28;20552;-88
2022/02/17 04:02:11;;;;;;;0.38;0.30;;;;;;;7.47;100.00;92060.19;2106832;28;20016;-88
2022/02/17 04:03:12;;;;;;;0.10;0.10;;;;;;;7.57;100.00;92067.13;2106975;28;20043;-87
2022/02/17 04:04:13;;;;;;;0.10;0.10;;;;;;;7.48;100.00;92064.34;2106901;28;20024;-88
2022/02/17 04:05:14;;;;;;;0.65;0.10;;;;;;;7.64;100.00;92057.44;2098555;28;20520;-88
2022/02/17 04:06:15;;;;;;;1.55;0.20;;;;;;;7.44;100.00;92050.41;2098557;28;20056;-87
2022/02/17 04:07:16;;;;;;;0.17;0.10;;;;;;;7.45;100.00;92061.78;2098527;28;20033;-87
2022/02/17 04:08:17;;;;;;;0.28;0.10;;;;;;;7.48;100.00;92040.41;2106811;28;20028;-87
2022/02/17 04:09:18;;;;;;;0.10;0.10;;;;;;;7.53;100.00;92045.19;2107055;28;20027;-87
2022/02/17 04:10:19;;;;;;;0.10;0.10;;;;;;;7.32;100.00;92040.47;2107177;28;20311;-87
2022/02/17 04:11:20;;;;;;;0.52;0.20;;;;;;;7.27;100.00;92063.00;2106380;28;20508;-87
2022/02/17 04:12:21;;;;;;;0.10;0.10;;;;;;;7.22;100.00;92057.44;2106863;28;20110;-87
2022/02/17 04:13:22;;;;;;;0.10;0.10;;;;;;;7.24;100.00;92076.38;2123831;27;20018;-87
2022/02/17 04:14:23;;;;;;;0.15;0.10;;;;;;;7.54;100.00;92061.91;2115154;28;20059;-87
2022/02/17 04:15:24;;;;;;;0.10;0.10;;;;;;;7.51;100.00;92063.50;2106833;28;20024;-87
2022/02/17 04:16:25;;;;;;;0.10;0.10;;;;;;;7.62;100.00;92070.44;2123805;27;20087;-87
2022/02/17 04:17:26;;;;;;;0.30;0.10;;;;;;;7.55;100.00;92055.41;2114373;28;20107;-87
2022/02/17 04:18:27;;;;;;;0.10;0.10;;;;;;;7.55;100.00;92071.34;2107082;28;20263;-87
2022/02/17 04:19:31;;;;;;;0.17;0.10;;;;;;;7.50;100.00;92061.25;2106892;28;20069;-87
2022/02/17 04:20:32;;;;;;;0.17;0.17;;;;;;;7.42;100.00;92050.09;2098971;28;20024;-88
2022/02/17 04:21:33;;;;;;;0.10;0.10;;;;;;;7.64;100.00;92066.19;2098541;28;20103;-88
2022/02/17 04:22:33;;;;;;;0.30;0.13;;;;;;;7.46;100.00;92077.31;2100796;28;20099;-88
2022/02/17 04:23:35;;;;;;;0.10;0.10;;;;;;;7.35;100.00;92090.13;2106641;28;20418;-87
2022/02/17 04:24:36;;;;;;;0.10;0.10;;;;;;;7.45;100.00;92091.75;2106974;28;20044;-87
2022/02/17 04:25:37;;;;;;;0.15;0.15;;;;;;;7.51;100.00;92071.47;2098453;28;20028;-87
2022/02/17 04:26:38;;;;;;;0.10;0.10;;;;;;;7.65;100.00;92072.25;2098255;28;20047;-87
2022/02/17 04:27:39;;;;;;;0.10;0.10;;;;;;;7.69;100.00;92094.94;2098368;28;20747;-88
2022/02/17 04:28:43;;;;;;;0.80;0.20;;;;;;;7.53;100.00;92087.75;2106481;28;20024;-87
2022/02/17 04:29:44;;;;;;;0.10;0.10;;;;;;;7.39;100.00;92090.03;2107678;27;20035;-87
2022/02/17 04:30:45;;;;;;;0.38;0.10;;;;;;;7.32;100.00;92089.06;2106551;28;20024;-87
2022/02/17 04:31:46;;;;;;;0.10;0.10;;;;;;;7.36;100.00;92091.63;2090083;28;20494;-87
2022/02/17 04:32:47;;;;;;;0.20;0.10;;;;;;;7.31;100.00;92089.47;2106511;28;20048;-86
2022/02/17 04:33:48;;;;;;;0.10;0.10;;;;;;;7.45;100.00;92091.75;2106658;28;20031;-88
2022/02/17 04:34:49;;;;;;;2.83;0.17;;;;;;;7.32;100.00;92096.28;2098164;28;20052;-86
2022/02/17 04:35:50;;;;;;;0.10;0.10;;;;;;;7.31;100.00;92100.13;2098433;28;20067;-87
2022/02/17 04:36:51;;;;;;;0.15;0.15;;;;;;;7.29;100.00;92083.84;2098145;28;20033;-87
2022/02/17 04:37:52;;;;;;;0.10;0.10;;;;;;;7.37;100.00;92090.44;2098297;28;20016;-87
2022/02/17 04:38:53;;;;;;;0.10;0.10;;;;;;;7.38;100.00;92091.22;2098180;28;20502;-87
2022/02/17 04:42:18;;;;;;;2.67;0.20;;;;;;;7.39;100.00;92077.50;2098299;28;20021;-87
2022/02/17 04:43:03;;;;;;;0.10;0.10;;;;;;;7.45;100.00;92101.66;2108973;28;20046;-87
2022/02/17 04:44:05;;;;;;;0.20;0.13;;;;;;;7.51;100.00;92092.00;2098408;28;20466;-87
2022/02/17 04:45:07;;;;;;;0.10;0.10;;;;;;;7.42;100.00;92115.78;2098244;28;20087;-87
2022/02/17 04:46:09;;;;;;;0.10;0.10;;;;;;;7.45;100.00;92096.34;2115323;27;20035;-87
2022/02/17 04:47:10;;;;;;;0.90;0.10;;;;;;;7.47;100.00;92100.06;2114838;28;20022;-87
2022/02/17 04:48:11;;;;;;;0.10;0.10;;;;;;;7.48;100.00;92100.81;2106429;28;20016;-87
2022/02/17 04:49:14;;;;;;;0.10;0.10;;;;;;;7.75;100.00;92090.56;2115038;28;20026;-87
2022/02/17 04:50:14;;;;;;;0.10;0.10;;;;;;;7.50;100.00;92087.84;2090296;28;20087;-87
2022/02/17 04:51:15;;;;;;;0.10;0.10;;;;;;;7.50;100.00;92085.19;2097988;28;20020;-87
2022/02/17 04:52:17;;;;;;;0.10;0.10;;;;;;;7.54;100.00;92083.91;2098165;28;20089;-88